createdAt,value
2022-12-11T00:04:44.808Z,9.73
2022-12-11T00:14:49.521Z,10.63
2022-12-11T00:24:54.187Z,9.73
2022-12-11T00:35:03.058Z,11.48
2022-12-11T00:45:06.025Z,10.50
2022-12-11T00:55:08.021Z,11.60
2022-12-11T01:05:12.164Z,10.57
2022-12-11T01:15:14.056Z,11.35
2022-12-11T01:25:15.741Z,12.23
2022-12-11T01:35:17.951Z,11.63
2022-12-11T01:45:24.697Z,12.32
2022-12-11T01:55:28.710Z,12.05
2022-12-11T02:05:30.492Z,11.05
2022-12-11T02:15:41.678Z,9.77
2022-12-11T02:26:10.023Z,8.80
2022-12-11T02:36:16.752Z,7.38
2022-12-11T02:46:22.028Z,7.63
2022-12-11T02:56:53.903Z,7.47
2022-12-11T03:07:01.590Z,5.57
2022-12-11T03:17:20.090Z,5.43
2022-12-11T03:27:38.840Z,4.85
2022-12-11T03:37:57.752Z,4.30
2022-12-11T03:48:02.444Z,4.10
2022-12-11T03:58:05.209Z,4.05
2022-12-11T04:08:08.072Z,4.20
2022-12-11T04:18:34.245Z,4.05
2022-12-11T04:28:37.716Z,4.43
2022-12-11T04:38:41.489Z,4.60
2022-12-11T04:48:43.522Z,4.63
2022-12-11T04:58:47.121Z,5.25
2022-12-11T05:08:48.761Z,6.80
2022-12-11T05:18:58.741Z,6.32
2022-12-11T05:29:00.416Z,6.40
2022-12-11T05:39:03.834Z,7.50
2022-12-11T05:49:06.253Z,7.93
2022-12-11T05:59:07.990Z,6.95
2022-12-11T06:09:13.787Z,7.18
2022-12-11T06:19:18.412Z,5.93
2022-12-11T06:29:20.153Z,6.88
2022-12-11T06:39:21.855Z,6.97
2022-12-11T06:49:23.692Z,8.93
2022-12-11T06:59:25.413Z,8.65
2022-12-11T07:09:27.308Z,8.75
2022-12-11T07:19:39.093Z,9.02
2022-12-11T07:29:40.977Z,8.80
2022-12-11T07:39:43.194Z,7.70
2022-12-11T07:49:45.001Z,7.32
2022-12-11T07:59:46.851Z,6.97
2022-12-11T08:09:50.604Z,6.03
2022-12-11T08:19:52.729Z,7.07
2022-12-11T08:29:54.397Z,5.97
2022-12-11T08:39:56.055Z,6.18
2022-12-11T08:49:59.907Z,5.57
2022-12-11T09:00:01.776Z,4.80
2022-12-11T09:10:06.345Z,4.57
2022-12-11T09:20:17.068Z,4.75
2022-12-11T09:30:18.962Z,4.78
2022-12-11T09:40:22.150Z,4.20
2022-12-11T09:50:27.604Z,3.77
2022-12-11T10:00:40.165Z,4.05
2022-12-11T10:10:51.784Z,4.05
2022-12-11T10:20:54.771Z,3.17
2022-12-11T10:31:19.263Z,4.13
2022-12-11T10:41:33.813Z,3.90
2022-12-11T10:51:40.105Z,4.13
2022-12-11T11:01:47.101Z,4.18
2022-12-11T11:11:50.717Z,4.13
2022-12-11T11:22:15.325Z,4.65
2022-12-11T11:32:24.181Z,4.25
2022-12-11T11:42:46.178Z,5.22
2022-12-11T11:52:55.965Z,5.03
2022-12-11T12:03:10.842Z,4.72
2022-12-11T12:13:51.496Z,5.28
2022-12-11T12:24:34.922Z,5.13
2022-12-11T12:34:46.060Z,4.93
2022-12-11T12:45:07.746Z,5.15
2022-12-11T12:55:23.519Z,4.82
2022-12-11T13:05:28.232Z,5.05
2022-12-11T13:15:34.770Z,5.30
2022-12-11T13:25:55.336Z,5.00
2022-12-11T13:36:25.155Z,5.35
2022-12-11T13:46:34.763Z,5.95
2022-12-11T13:56:39.448Z,6.60
2022-12-11T14:06:41.846Z,6.88
2022-12-11T14:16:43.938Z,6.53
2022-12-11T14:26:52.663Z,7.18
2022-12-11T14:36:56.411Z,8.63
2022-12-11T14:47:06.222Z,7.00
2022-12-11T14:57:20.451Z,7.90
2022-12-11T15:17:31.183Z,7.90
2022-12-11T15:27:40.390Z,8.63
2022-12-11T15:37:52.984Z,9.77
2022-12-11T15:47:55.481Z,8.43
2022-12-11T15:58:03.671Z,8.52
2022-12-11T16:08:24.462Z,9.02
2022-12-11T16:18:29.516Z,7.53
2022-12-11T16:28:33.389Z,8.82
2022-12-11T16:38:39.777Z,8.43
2022-12-11T16:48:46.758Z,8.18
2022-12-11T16:58:49.808Z,8.13
2022-12-11T17:08:52.519Z,7.38
2022-12-11T17:18:57.258Z,7.63
2022-12-11T17:29:06.899Z,9.27
2022-12-11T17:39:11.334Z,8.35
2022-12-11T17:49:20.584Z,9.13
2022-12-11T17:59:25.200Z,7.80
2022-12-11T18:09:28.267Z,9.25
2022-12-11T18:19:42.819Z,8.57
2022-12-11T18:29:57.850Z,7.65
2022-12-11T18:40:00.296Z,8.15
2022-12-11T18:50:07.605Z,9.00
2022-12-11T19:00:23.599Z,8.73
2022-12-11T19:10:30.384Z,10.23
2022-12-11T19:20:57.791Z,10.52
2022-12-11T19:31:01.916Z,10.35
2022-12-11T19:41:12.755Z,10.48
2022-12-11T19:51:20.971Z,10.60
2022-12-11T20:01:29.375Z,11.10
2022-12-11T20:11:34.567Z,11.02
2022-12-11T20:21:37.169Z,12.80
2022-12-11T20:31:50.845Z,15.05
2022-12-11T20:42:03.486Z,16.80
2022-12-11T20:52:07.263Z,16.27
2022-12-11T21:02:13.581Z,17.50
2022-12-11T21:12:15.941Z,18.40
2022-12-11T21:22:20.062Z,15.02
2022-12-11T21:42:28.915Z,16.90
2022-12-11T21:52:30.860Z,16.63
2022-12-11T22:02:36.082Z,18.05
2022-12-11T22:12:56.498Z,15.88
2022-12-11T22:22:58.203Z,17.25
2022-12-11T22:33:01.956Z,16.05
2022-12-11T22:43:11.592Z,17.80
2022-12-11T22:53:16.481Z,16.58
2022-12-11T23:03:18.234Z,16.52
2022-12-11T23:13:21.183Z,15.45
2022-12-11T23:23:22.908Z,16.85
2022-12-11T23:33:24.901Z,16.38
2022-12-11T23:43:27.168Z,15.82
2022-12-11T23:53:29.459Z,12.23
